Time;durP1;ratioP1;P1;durP2;ratioP2;P2;SDS_P1;SDS_P2;PMS_P1;PMS_P2;Temp;Humidity;BMP_temperature;BMP_pressure;BME280_temperature;BME280_humidity;BME280_pressure;Samples;Min_cycle;Max_cycle;Signal;HPM_P1;HPM_P2
2021/12/11 00:00:53;;;;;;;1.33;0.73;;;;;;;;;;5054182;28;20029;-54
2021/12/11 00:03:22;;;;;;;2.07;1.10;;;;;;;;;;5057528;28;20028;-52
2021/12/11 00:06:00;;;;;;;0.87;0.70;;;;;;;;;;5074421;28;20039;-56
2021/12/11 00:08:28;;;;;;;1.67;0.77;;;;;;;;;;5073832;28;20024;-53
2021/12/11 00:11:00;;;;;;;1.27;0.77;;;;;;;;;;5074602;28;20441;-54
2021/12/11 00:13:29;;;;;;;1.70;1.03;;;;;;;;;;5073917;28;20462;-56
2021/12/11 00:15:55;;;;;;;1.40;0.83;;;;;;;;;;5073833;28;20039;-55
2021/12/11 00:18:26;;;;;;;1.60;0.67;;;;;;;;;;5073614;28;20028;-53
2021/12/11 00:20:57;;;;;;;1.15;0.85;;;;;;;;;;5074055;28;20035;-56
2021/12/11 00:23:26;;;;;;;1.85;1.05;;;;;;;;;;5066549;28;20028;-54
2021/12/11 00:25:52;;;;;;;2.03;1.02;;;;;;;;;;5053780;28;20230;-56
2021/12/11 00:28:19;;;;;;;0.90;0.60;;;;;;;;;;5053095;28;20036;-53
2021/12/11 00:30:46;;;;;;;1.50;0.90;;;;;;;;;;5053149;28;20057;-54
2021/12/11 00:33:20;;;;;;;1.87;1.07;;;;;;;;;;5054123;28;20071;-55
2021/12/11 00:35:46;;;;;;;1.23;0.77;;;;;;;;;;5053908;28;20075;-51
2021/12/11 00:38:18;;;;;;;2.23;1.40;;;;;;;;;;5053026;28;20029;-53
2021/12/11 00:40:45;;;;;;;2.33;1.50;;;;;;;;;;5053743;28;20029;-54
2021/12/11 00:43:16;;;;;;;2.00;1.20;;;;;;;;;;5053698;28;20071;-56
2021/12/11 00:45:43;;;;;;;2.97;1.50;;;;;;;;;;5053696;28;20029;-56
2021/12/11 00:48:10;;;;;;;1.70;1.20;;;;;;;;;;5052928;28;20207;-56
2021/12/11 00:50:39;;;;;;;2.67;1.50;;;;;;;;;;5053490;28;20467;-54
2021/12/11 00:53:08;;;;;;;2.47;1.40;;;;;;;;;;5053158;28;20029;-56
2021/12/11 00:55:42;;;;;;;2.87;1.57;;;;;;;;;;5053361;28;20040;-56
2021/12/11 00:58:08;;;;;;;1.10;0.70;;;;;;;;;;5052858;28;20033;-55
2021/12/11 01:00:39;;;;;;;2.60;1.50;;;;;;;;;;5053275;28;20051;-55
2021/12/11 01:03:06;;;;;;;1.80;1.43;;;;;;;;;;5054175;28;20486;-56
2021/12/11 01:05:40;;;;;;;5.77;1.30;;;;;;;;;;5073023;28;20186;-53
2021/12/11 01:08:27;;;;;;;1.90;1.10;;;;;;;;;;5072702;28;20028;-54
2021/12/11 01:10:57;;;;;;;1.47;0.83;;;;;;;;;;5073121;28;20413;-56
2021/12/11 01:13:26;;;;;;;1.00;0.68;;;;;;;;;;5073107;28;20035;-53
2021/12/11 01:15:58;;;;;;;1.63;0.93;;;;;;;;;;5072413;28;20040;-56
2021/12/11 01:18:34;;;;;;;1.37;1.03;;;;;;;;;;5072339;28;20040;-57
2021/12/11 01:21:12;;;;;;;1.73;0.90;;;;;;;;;;5073004;28;20020;-52
2021/12/11 01:26:07;;;;;;;2.37;1.67;;;;;;;;;;5052823;28;20059;-56
2021/12/11 01:28:34;;;;;;;1.80;1.23;;;;;;;;;;5051911;28;20021;-56
2021/12/11 01:31:01;;;;;;;1.70;0.93;;;;;;;;;;5052747;28;20017;-56
2021/12/11 01:33:27;;;;;;;1.50;0.80;;;;;;;;;;5052796;28;20021;-55
2021/12/11 01:35:53;;;;;;;1.60;1.00;;;;;;;;;;5052460;28;20085;-54
2021/12/11 01:38:24;;;;;;;1.90;1.20;;;;;;;;;;5051954;28;20029;-55
2021/12/11 01:40:51;;;;;;;1.38;0.75;;;;;;;;;;5052584;28;20021;-55
2021/12/11 01:43:20;;;;;;;6.17;1.40;;;;;;;;;;5052137;28;20462;-56
2021/12/11 01:45:47;;;;;;;2.03;0.93;;;;;;;;;;5052379;28;20029;-54
2021/12/11 01:48:33;;;;;;;3.40;1.10;;;;;;;;;;5051889;28;20096;-56
2021/12/11 01:51:05;;;;;;;1.13;0.60;;;;;;;;;;5052560;28;20073;-55
2021/12/11 01:53:34;;;;;;;2.43;1.00;;;;;;;;;;5052089;28;20136;-56
2021/12/11 01:56:07;;;;;;;1.27;0.83;;;;;;;;;;5052529;28;20044;-54
2021/12/11 01:58:37;;;;;;;1.27;0.67;;;;;;;;;;5051659;28;20029;-53
2021/12/11 02:01:09;;;;;;;1.67;1.07;;;;;;;;;;5052175;28;20025;-53
2021/12/11 02:03:37;;;;;;;1.87;0.77;;;;;;;;;;5057219;28;20025;-56
2021/12/11 02:06:03;;;;;;;1.90;0.87;;;;;;;;;;5072004;28;20055;-56
2021/12/11 02:08:31;;;;;;;5.93;1.30;;;;;;;;;;5071972;28;20032;-57
2021/12/11 02:10:59;;;;;;;1.57;1.00;;;;;;;;;;5072375;28;20122;-53
2021/12/11 02:13:38;;;;;;;2.53;1.50;;;;;;;;;;5072288;28;20036;-55
2021/12/11 02:16:05;;;;;;;2.00;1.20;;;;;;;;;;5071921;28;20545;-56
2021/12/11 02:18:36;;;;;;;2.17;1.30;;;;;;;;;;5069968;28;20028;-56
2021/12/11 02:21:22;;;;;;;1.30;0.90;;;;;;;;;;5072294;28;20247;-56
2021/12/11 02:23:57;;;;;;;1.87;1.10;;;;;;;;;;5056995;28;20048;-53
2021/12/11 02:26:23;;;;;;;3.07;1.33;;;;;;;;;;5051915;28;20085;-55
2021/12/11 02:28:52;;;;;;;2.10;1.33;;;;;;;;;;5051206;28;20122;-55
2021/12/11 02:31:26;;;;;;;1.60;1.13;;;;;;;;;;5052016;28;20021;-57
2021/12/11 02:33:56;;;;;;;1.57;0.80;;;;;;;;;;5051913;28;20571;-55
2021/12/11 02:36:23;;;;;;;2.63;0.83;;;;;;;;;;5051997;28;20037;-51
2021/12/11 02:38:57;;;;;;;0.93;0.60;;;;;;;;;;5051145;28;20252;-54
2021/12/11 02:41:49;;;;;;;0.73;0.40;;;;;;;;;;5051664;28;20132;-54
2021/12/11 02:44:27;;;;;;;0.97;0.57;;;;;;;;;;5051887;28;20035;-52
2021/12/11 02:47:23;;;;;;;0.40;0.27;;;;;;;;;;5051662;28;20033;-51
2021/12/11 02:49:51;;;;;;;0.63;0.33;;;;;;;;;;5046192;28;20110;-53
2021/12/11 02:52:17;;;;;;;0.57;0.33;;;;;;;;;;5051891;28;20025;-51
2021/12/11 02:54:46;;;;;;;0.37;0.13;;;;;;;;;;5054107;28;20086;-52
2021/12/11 02:57:18;;;;;;;0.80;0.60;;;;;;;;;;5055709;28;20428;-54
2021/12/11 02:59:45;;;;;;;0.47;0.27;;;;;;;;;;5054525;28;20091;-54
2021/12/11 03:02:31;;;;;;;0.33;0.20;;;;;;;;;;5055321;28;20463;-54
2021/12/11 03:05:08;;;;;;;0.47;0.30;;;;;;;;;;5071851;28;20028;-50
2021/12/11 03:07:39;;;;;;;0.30;0.17;;;;;;;;;;5075581;28;20052;-50
2021/12/11 03:10:10;;;;;;;0.90;0.53;;;;;;;;;;5074643;28;20081;-52
2021/12/11 03:12:37;;;;;;;0.90;0.50;;;;;;;;;;5075315;28;20099;-51
2021/12/11 03:15:04;;;;;;;0.50;0.30;;;;;;;;;;5075373;28;20036;-51
2021/12/11 03:17:30;;;;;;;0.60;0.30;;;;;;;;;;5075213;28;20032;-55
2021/12/11 03:19:56;;;;;;;0.80;0.47;;;;;;;;;;5074542;28;20393;-51
2021/12/11 03:22:27;;;;;;;0.80;0.50;;;;;;;;;;5075242;28;20085;-52
2021/12/11 03:24:53;;;;;;;1.23;0.63;;;;;;;;;;5055001;28;20025;-55
2021/12/11 03:27:19;;;;;;;1.20;0.97;;;;;;;;;;5054881;28;20490;-52
2021/12/11 03:29:45;;;;;;;2.07;0.97;;;;;;;;;;5054411;28;20108;-54
2021/12/11 03:32:12;;;;;;;1.47;0.90;;;;;;;;;;5055096;28;20033;-52
2021/12/11 03:34:39;;;;;;;0.90;0.53;;;;;;;;;;5054664;28;20040;-50
2021/12/11 03:37:08;;;;;;;0.93;0.70;;;;;;;;;;5054970;28;20373;-51
2021/12/11 03:39:39;;;;;;;0.73;0.37;;;;;;;;;;5054073;28;20035;-53
2021/12/11 03:42:05;;;;;;;;;;;;;;;;;;5055429;28;20036;-57
2021/12/11 03:44:33;;;;;;;1.43;0.83;;;;;;;;;;5054790;28;20359;-53
2021/12/11 03:47:01;;;;;;;1.70;0.57;;;;;;;;;;5054829;28;20050;-57
2021/12/11 03:49:27;;;;;;;1.40;0.90;;;;;;;;;;5053777;28;20025;-53
2021/12/11 03:51:54;;;;;;;2.00;1.20;;;;;;;;;;5054564;28;20151;-55
2021/12/11 03:54:31;;;;;;;2.70;1.50;;;;;;;;;;5054219;28;20041;-55
2021/12/11 03:56:57;;;;;;;2.30;1.60;;;;;;;;;;5054639;28;20028;-56
2021/12/11 03:59:23;;;;;;;1.37;0.93;;;;;;;;;;5053841;28;20029;-50
2021/12/11 04:01:51;;;;;;;2.53;1.77;;;;;;;;;;5054290;28;20036;-53
2021/12/11 04:04:23;;;;;;;1.63;1.03;;;;;;;;;;5065006;28;20032;-55
2021/12/11 04:06:49;;;;;;;1.87;1.33;;;;;;;;;;5073099;28;20024;-56
2021/12/11 04:09:16;;;;;;;1.90;1.30;;;;;;;;;;5073483;28;20438;-56
2021/12/11 04:11:42;;;;;;;2.33;1.50;;;;;;;;;;5074415;28;20037;-56
2021/12/11 04:14:12;;;;;;;2.33;1.60;;;;;;;;;;5074167;28;20378;-55
2021/12/11 04:16:38;;;;;;;2.25;1.55;;;;;;;;;;5074978;28;20056;-56
2021/12/11 04:19:05;;;;;;;1.50;1.10;;;;;;;;;;5073366;28;20028;-55
2021/12/11 04:21:32;;;;;;;2.43;1.83;;;;;;;;;;5073977;28;20486;-56
2021/12/11 04:23:58;;;;;;;2.33;1.80;;;;;;;;;;5061627;28;20029;-53
2021/12/11 04:26:24;;;;;;;1.77;1.33;;;;;;;;;;5054017;28;20107;-55
2021/12/11 04:28:50;;;;;;;2.00;1.33;;;;;;;;;;5053516;28;20114;-53
2021/12/11 04:31:19;;;;;;;2.17;1.37;;;;;;;;;;5049224;28;20056;-54
2021/12/11 04:33:46;;;;;;;2.30;1.60;;;;;;;;;;5053700;28;20027;-55
2021/12/11 04:36:16;;;;;;;2.80;1.90;;;;;;;;;;5053606;28;20051;-56
2021/12/11 04:38:43;;;;;;;3.47;1.57;;;;;;;;;;5051816;28;20057;-55
2021/12/11 04:41:11;;;;;;;2.03;1.33;;;;;;;;;;5042665;28;20053;-54
2021/12/11 04:43:37;;;;;;;2.30;1.50;;;;;;;;;;5033714;28;20430;-56
2021/12/11 04:46:07;;;;;;;2.47;1.87;;;;;;;;;;5033494;28;20521;-56
2021/12/11 04:48:40;;;;;;;;;;;;;;;;;;5033321;28;20113;-56
2021/12/11 04:53:46;;;;;;;3.30;1.90;;;;;;;;;;5046889;28;20037;-56
2021/12/11 05:01:47;;;;;;;2.90;1.80;;;;;;;;;;5053533;28;20052;-55
2021/12/11 05:04:39;;;;;;;2.67;2.07;;;;;;;;;;5062812;28;20378;-57
2021/12/11 05:07:22;;;;;;;2.90;1.97;;;;;;;;;;5064836;28;20095;-55
2021/12/11 05:09:57;;;;;;;2.70;2.20;;;;;;;;;;5052607;28;20470;-56
2021/12/11 05:14:58;;;;;;;3.00;2.20;;;;;;;;;;5053079;28;20043;-55
2021/12/11 05:17:25;;;;;;;5.03;2.60;;;;;;;;;;5052425;28;20071;-53
2021/12/11 05:19:51;;;;;;;2.10;1.90;;;;;;;;;;5052005;28;20040;-56
2021/12/11 05:22:17;;;;;;;2.73;2.10;;;;;;;;;;5051524;28;20033;-54
2021/12/11 05:24:49;;;;;;;3.60;2.60;;;;;;;;;;5053001;28;20036;-55
2021/12/11 05:27:15;;;;;;;3.50;2.60;;;;;;;;;;5053208;28;20037;-55
2021/12/11 05:29:41;;;;;;;3.20;2.57;;;;;;;;;;5052096;28;20037;-54
2021/12/11 05:32:11;;;;;;;3.17;2.47;;;;;;;;;;5052677;28;20083;-54
2021/12/11 05:34:37;;;;;;;7.00;3.57;;;;;;;;;;5051749;28;20033;-53
2021/12/11 05:37:04;;;;;;;3.27;2.97;;;;;;;;;;5052985;28;20065;-54
2021/12/11 05:39:30;;;;;;;3.43;2.77;;;;;;;;;;5052229;28;20049;-54
2021/12/11 05:41:57;;;;;;;6.00;3.77;;;;;;;;;;5052581;28;20044;-55
2021/12/11 05:44:23;;;;;;;3.43;2.60;;;;;;;;;;5052562;28;20411;-55
2021/12/11 05:46:50;;;;;;;4.27;3.60;;;;;;;;;;5052210;28;20033;-55
2021/12/11 05:49:16;;;;;;;4.43;3.10;;;;;;;;;;5049852;28;20027;-55
2021/12/11 05:51:44;;;;;;;3.63;2.87;;;;;;;;;;5052383;28;20025;-55
2021/12/11 05:54:12;;;;;;;4.60;3.63;;;;;;;;;;5052334;28;20029;-56
2021/12/11 05:56:39;;;;;;;3.27;2.97;;;;;;;;;;5052240;28;20021;-57
2021/12/11 05:59:07;;;;;;;3.57;2.60;;;;;;;;;;5051623;28;20502;-57
2021/12/11 06:01:47;;;;;;;3.93;3.07;;;;;;;;;;5052155;28;20025;-57
2021/12/11 06:04:19;;;;;;;3.70;2.75;;;;;;;;;;5053835;28;20028;-57
2021/12/11 06:06:45;;;;;;;2.63;2.33;;;;;;;;;;5072187;28;20115;-56
2021/12/11 06:09:12;;;;;;;2.90;2.27;;;;;;;;;;5071665;28;20025;-56
2021/12/11 06:11:39;;;;;;;3.13;2.63;;;;;;;;;;5072148;28;20043;-56
2021/12/11 06:14:05;;;;;;;4.33;3.00;;;;;;;;;;5072115;28;20390;-55
2021/12/11 06:16:32;;;;;;;4.67;2.57;;;;;;;;;;5065455;28;20033;-54
2021/12/11 06:19:03;;;;;;;4.40;2.87;;;;;;;;;;5051518;28;20089;-56
2021/12/11 06:21:29;;;;;;;2.93;2.57;;;;;;;;;;5051823;28;20089;-55
2021/12/11 06:23:55;;;;;;;6.97;3.13;;;;;;;;;;5045183;28;20098;-53
2021/12/11 06:26:21;;;;;;;2.73;2.37;;;;;;;;;;5031757;28;20106;-56
2021/12/11 06:28:47;;;;;;;3.97;3.40;;;;;;;;;;5033009;28;20243;-55
2021/12/11 06:31:18;;;;;;;3.57;2.87;;;;;;;;;;5036324;28;20500;-55
2021/12/11 06:33:45;;;;;;;3.33;2.37;;;;;;;;;;5036294;28;20036;-52
2021/12/11 06:36:11;;;;;;;2.60;2.27;;;;;;;;;;5040205;28;20510;-55
2021/12/11 06:38:38;;;;;;;4.03;3.57;;;;;;;;;;5055059;28;20025;-57
2021/12/11 06:41:05;;;;;;;5.00;3.47;;;;;;;;;;5055802;28;20028;-50
2021/12/11 06:43:32;;;;;;;3.80;2.97;;;;;;;;;;5056146;28;20039;-53
2021/12/11 06:45:58;;;;;;;4.47;3.33;;;;;;;;;;5055812;28;20031;-51
2021/12/11 06:48:24;;;;;;;3.70;3.27;;;;;;;;;;5055329;28;20108;-50
2021/12/11 06:50:50;;;;;;;4.77;4.17;;;;;;;;;;5055659;28;20413;-51
2021/12/11 06:53:25;;;;;;;4.33;3.87;;;;;;;;;;5053848;28;20025;-50
2021/12/11 06:55:51;;;;;;;4.93;4.20;;;;;;;;;;5055556;28;20040;-51
2021/12/11 06:58:17;;;;;;;4.90;4.40;;;;;;;;;;5055099;28;20398;-51
2021/12/11 07:00:43;;;;;;;6.10;5.03;;;;;;;;;;5055658;28;20049;-54
2021/12/11 07:03:09;;;;;;;4.67;4.13;;;;;;;;;;5057142;28;20032;-52
2021/12/11 07:05:37;;;;;;;5.67;4.63;;;;;;;;;;5075439;28;20029;-54
2021/12/11 07:08:05;;;;;;;5.47;4.27;;;;;;;;;;5051399;28;20030;-52
2021/12/11 07:10:31;;;;;;;6.40;5.37;;;;;;;;;;5035590;28;20479;-53
2021/12/11 07:12:57;;;;;;;5.63;4.67;;;;;;;;;;5035453;28;20025;-54
2021/12/11 07:15:23;;;;;;;5.37;4.60;;;;;;;;;;5035466;28;20044;-50
2021/12/11 07:17:49;;;;;;;6.17;5.57;;;;;;;;;;5034711;28;20466;-53
2021/12/11 07:20:16;;;;;;;6.00;5.40;;;;;;;;;;5035239;28;20374;-54
2021/12/11 07:22:42;;;;;;;6.63;5.97;;;;;;;;;;5051471;28;20211;-51
2021/12/11 07:25:29;;;;;;;6.20;5.60;;;;;;;;;;5055289;28;20029;-51
2021/12/11 07:27:55;;;;;;;5.30;4.73;;;;;;;;;;5054447;28;20057;-54
2021/12/11 07:30:23;;;;;;;6.70;4.90;;;;;;;;;;5055089;28;20044;-50
2021/12/11 07:32:49;;;;;;;6.57;5.97;;;;;;;;;;5054331;28;20039;-54
2021/12/11 07:35:15;;;;;;;6.83;5.63;;;;;;;;;;5054565;28;20185;-50
2021/12/11 07:37:47;;;;;;;7.33;6.03;;;;;;;;;;5054886;28;20066;-56
2021/12/11 07:40:13;;;;;;;6.83;6.13;;;;;;;;;;5054368;28;20040;-52
2021/12/11 07:42:39;;;;;;;5.30;4.80;;;;;;;;;;5054836;28;20055;-51
2021/12/11 07:45:06;;;;;;;6.40;5.57;;;;;;;;;;5047474;28;20436;-55
2021/12/11 07:47:32;;;;;;;6.63;5.63;;;;;;;;;;5045972;28;20033;-53
2021/12/11 07:49:58;;;;;;;5.60;4.00;;;;;;;;;;5043037;28;20390;-55
2021/12/11 07:52:24;;;;;;;7.30;5.53;;;;;;;;;;5052663;28;20109;-53
2021/12/11 07:54:51;;;;;;;6.23;5.63;;;;;;;;;;5052550;28;20029;-51
2021/12/11 07:57:17;;;;;;;8.27;5.77;;;;;;;;;;5052482;28;20036;-54
2021/12/11 07:59:43;;;;;;;6.77;5.93;;;;;;;;;;5050059;28;20064;-55
2021/12/11 08:02:09;;;;;;;7.10;6.40;;;;;;;;;;5052459;28;20056;-56
2021/12/11 08:04:35;;;;;;;10.13;8.30;;;;;;;;;;5056505;28;20041;-53
2021/12/11 08:07:01;;;;;;;8.87;7.03;;;;;;;;;;5054364;28;20056;-53
2021/12/11 08:09:27;;;;;;;7.93;7.23;;;;;;;;;;5053678;28;20029;-53
2021/12/11 08:11:53;;;;;;;10.50;7.50;;;;;;;;;;5053956;28;20513;-54
2021/12/11 08:14:21;;;;;;;7.13;6.37;;;;;;;;;;5054096;28;20028;-55
2021/12/11 08:16:48;;;;;;;8.97;6.97;;;;;;;;;;5053858;28;20032;-50
2021/12/11 08:19:16;;;;;;;9.60;7.57;;;;;;;;;;5038188;28;20034;-52
2021/12/11 08:21:42;;;;;;;9.00;8.07;;;;;;;;;;5034122;28;20382;-52
2021/12/11 08:24:08;;;;;;;9.57;8.00;;;;;;;;;;5047601;28;20360;-50
2021/12/11 08:26:35;;;;;;;10.47;9.10;;;;;;;;;;5053727;28;20032;-54
2021/12/11 08:29:01;;;;;;;10.93;8.90;;;;;;;;;;5052039;28;20033;-52
2021/12/11 08:31:28;;;;;;;9.13;7.23;;;;;;;;;;5052887;28;20021;-55
2021/12/11 08:33:54;;;;;;;8.77;7.87;;;;;;;;;;5050578;28;20037;-54
2021/12/11 08:36:21;;;;;;;8.60;7.60;;;;;;;;;;5053705;28;20037;-50
2021/12/11 08:38:47;;;;;;;9.73;8.10;;;;;;;;;;5053045;28;20025;-51
2021/12/11 08:41:15;;;;;;;10.60;9.47;;;;;;;;;;5048039;28;20104;-57
2021/12/11 08:43:42;;;;;;;12.83;9.93;;;;;;;;;;5053282;28;20109;-55
2021/12/11 08:46:12;;;;;;;10.10;9.00;;;;;;;;;;5053015;28;20044;-52
2021/12/11 08:48:39;;;;;;;11.90;8.40;;;;;;;;;;5049653;28;20100;-57
2021/12/11 08:51:08;;;;;;;14.07;11.10;;;;;;;;;;5054081;28;20029;-55
2021/12/11 08:53:36;;;;;;;12.50;10.03;;;;;;;;;;5031651;28;20026;-55
2021/12/11 08:56:03;;;;;;;11.73;9.97;;;;;;;;;;5035275;28;20040;-54
2021/12/11 08:58:29;;;;;;;13.70;9.17;;;;;;;;;;5046613;28;20040;-55
2021/12/11 09:01:13;;;;;;;9.53;8.63;;;;;;;;;;5065009;28;20109;-54
2021/12/11 09:03:57;;;;;;;10.50;9.30;;;;;;;;;;5045211;28;20025;-55
2021/12/11 09:06:38;;;;;;;12.77;10.53;;;;;;;;;;5053224;28;20029;-56
2021/12/11 09:09:24;;;;;;;13.13;10.03;;;;;;;;;;5054099;28;20051;-55
2021/12/11 09:12:10;;;;;;;11.13;10.03;;;;;;;;;;5067699;28;20103;-56
2021/12/11 09:14:42;;;;;;;10.50;9.40;;;;;;;;;;5032883;28;20403;-56
2021/12/11 09:17:17;;;;;;;18.40;10.50;;;;;;;;;;5034189;28;20025;-57
2021/12/11 09:19:43;;;;;;;9.93;8.10;;;;;;;;;;5032545;28;20091;-57
2021/12/11 09:22:12;;;;;;;11.87;10.50;;;;;;;;;;5032910;28;20468;-54
2021/12/11 09:24:40;;;;;;;14.70;12.00;;;;;;;;;;5050654;28;20033;-54
2021/12/11 09:27:24;;;;;;;11.63;10.47;;;;;;;;;;5052467;28;20463;-54
2021/12/11 09:29:53;;;;;;;13.20;8.83;;;;;;;;;;5038053;28;20091;-53
2021/12/11 09:32:24;;;;;;;14.20;10.00;;;;;;;;;;5042854;28;20037;-55
2021/12/11 09:34:55;;;;;;;9.38;8.30;;;;;;;;;;5037515;28;20041;-52
2021/12/11 09:37:21;;;;;;;9.13;8.20;;;;;;;;;;5046352;28;20029;-54
2021/12/11 09:39:49;;;;;;;11.60;9.40;;;;;;;;;;5041928;28;20035;-54
2021/12/11 09:42:15;;;;;;;9.40;8.40;;;;;;;;;;5053108;28;20029;-54
2021/12/11 09:44:46;;;;;;;10.00;7.73;;;;;;;;;;5043524;28;20419;-55
2021/12/11 09:47:15;;;;;;;8.47;7.17;;;;;;;;;;5048124;28;20068;-55
2021/12/11 09:49:44;;;;;;;9.60;8.27;;;;;;;;;;5044349;28;20040;-54
2021/12/11 09:52:17;;;;;;;9.00;8.17;;;;;;;;;;5035177;28;20033;-55
2021/12/11 09:54:45;;;;;;;10.20;8.60;;;;;;;;;;5048378;28;20409;-54
2021/12/11 09:57:14;;;;;;;10.47;8.87;;;;;;;;;;5037734;28;20258;-55
2021/12/11 09:59:41;;;;;;;12.50;9.60;;;;;;;;;;5034332;28;20075;-55
2021/12/11 10:02:14;;;;;;;9.33;8.00;;;;;;;;;;5034685;28;20029;-55
2021/12/11 10:04:46;;;;;;;11.43;9.07;;;;;;;;;;5054357;28;20083;-54
2021/12/11 10:07:26;;;;;;;9.97;8.93;;;;;;;;;;5051554;28;20395;-55
2021/12/11 10:09:54;;;;;;;9.63;8.52;;;;;;;;;;5049574;28;20402;-54
2021/12/11 10:12:33;;;;;;;13.13;7.17;;;;;;;;;;5050020;28;20029;-54
2021/12/11 10:14:59;;;;;;;8.40;7.57;;;;;;;;;;5031896;28;20391;-54
2021/12/11 10:17:30;;;;;;;7.80;6.07;;;;;;;;;;5041570;28;20013;-52
2021/12/11 10:19:58;;;;;;;8.23;6.63;;;;;;;;;;5051191;28;20072;-53
2021/12/11 10:22:29;;;;;;;8.93;7.67;;;;;;;;;;5034148;28;20034;-54
2021/12/11 10:24:55;;;;;;;;;;;;;;;;;;5037449;28;20033;-53
2021/12/11 10:27:24;;;;;;;5.93;5.33;;;;;;;;;;5051588;28;20368;-54
2021/12/11 10:29:51;;;;;;;7.80;6.97;;;;;;;;;;5036520;28;20025;-51
2021/12/11 10:32:19;;;;;;;7.47;6.60;;;;;;;;;;5031813;28;20037;-55
2021/12/11 10:34:49;;;;;;;6.63;5.77;;;;;;;;;;5031854;28;20065;-55
2021/12/11 10:37:29;;;;;;;7.43;6.43;;;;;;;;;;5039145;28;20528;-53
2021/12/11 10:39:57;;;;;;;7.40;5.05;;;;;;;;;;5050514;28;20021;-54
2021/12/11 10:42:23;;;;;;;9.47;5.83;;;;;;;;;;5040063;28;20029;-53
2021/12/11 10:44:51;;;;;;;8.57;7.53;;;;;;;;;;5050643;28;20033;-51
2021/12/11 10:47:19;;;;;;;7.70;6.60;;;;;;;;;;5044344;28;20037;-56
2021/12/11 10:49:46;;;;;;;7.97;6.47;;;;;;;;;;5031248;28;20034;-52
2021/12/11 10:52:15;;;;;;;6.70;5.47;;;;;;;;;;5045958;28;20112;-54
2021/12/11 10:54:41;;;;;;;7.03;6.27;;;;;;;;;;5049449;28;20249;-53
2021/12/11 10:57:07;;;;;;;6.80;6.10;;;;;;;;;;5041968;28;20064;-51
2021/12/11 10:59:35;;;;;;;5.23;4.63;;;;;;;;;;5041102;28;20136;-52
2021/12/11 11:02:06;;;;;;;6.47;5.87;;;;;;;;;;5046802;28;20260;-53
2021/12/11 11:04:38;;;;;;;6.87;5.80;;;;;;;;;;5060832;28;20032;-50
2021/12/11 11:07:04;;;;;;;6.70;5.13;;;;;;;;;;5035410;28;20032;-52
2021/12/11 11:09:30;;;;;;;6.87;5.00;;;;;;;;;;5047090;28;20275;-49
2021/12/11 11:11:58;;;;;;;7.13;4.90;;;;;;;;;;5031647;28;20049;-51
2021/12/11 11:14:24;;;;;;;5.83;5.23;;;;;;;;;;5031829;28;20037;-54
2021/12/11 11:16:55;;;;;;;4.90;4.40;;;;;;;;;;5053042;28;20447;-53
2021/12/11 11:19:22;;;;;;;7.63;4.27;;;;;;;;;;5048936;28;20076;-53
2021/12/11 11:21:53;;;;;;;7.23;4.97;;;;;;;;;;5035230;28;20109;-54
2021/12/11 11:24:19;;;;;;;6.60;5.13;;;;;;;;;;5037561;28;20032;-50
2021/12/11 11:26:46;;;;;;;10.73;6.13;;;;;;;;;;5046717;28;20086;-51
2021/12/11 11:29:15;;;;;;;6.57;5.10;;;;;;;;;;5038465;28;20033;-53
2021/12/11 11:31:43;;;;;;;6.67;5.37;;;;;;;;;;5039963;28;20171;-51
2021/12/11 11:34:11;;;;;;;5.65;4.15;;;;;;;;;;5053112;28;20031;-50
2021/12/11 11:36:37;;;;;;;8.33;6.40;;;;;;;;;;5054631;28;20052;-50
2021/12/11 11:39:06;;;;;;;6.28;5.38;;;;;;;;;;5051780;28;20071;-55
2021/12/11 11:41:41;;;;;;;5.18;4.72;;;;;;;;;;5048544;28;20030;-51
2021/12/11 11:44:08;;;;;;;4.97;4.00;;;;;;;;;;5034498;28;20032;-51
2021/12/11 11:46:35;;;;;;;6.30;5.50;;;;;;;;;;5035548;28;20025;-51
2021/12/11 11:49:02;;;;;;;6.07;4.37;;;;;;;;;;5033266;28;20375;-52
2021/12/11 11:51:51;;;;;;;6.57;4.50;;;;;;;;;;5038375;28;20159;-50
2021/12/11 11:54:18;;;;;;;10.47;5.27;;;;;;;;;;5040597;28;20489;-49
2021/12/11 11:56:47;;;;;;;6.20;5.00;;;;;;;;;;5041342;28;20424;-49
2021/12/11 11:59:13;;;;;;;5.37;4.17;;;;;;;;;;5047579;28;20037;-53
2021/12/11 12:01:42;;;;;;;5.40;4.20;;;;;;;;;;5042198;28;20036;-49
2021/12/11 12:04:11;;;;;;;5.33;4.53;;;;;;;;;;5043778;28;20061;-50
2021/12/11 12:06:37;;;;;;;4.67;4.17;;;;;;;;;;5048321;28;20453;-51
2021/12/11 12:09:06;;;;;;;6.70;4.17;;;;;;;;;;5037158;28;20033;-51
2021/12/11 12:11:32;;;;;;;5.50;4.17;;;;;;;;;;5051452;28;20056;-53
2021/12/11 12:13:59;;;;;;;7.00;4.27;;;;;;;;;;5038501;28;20030;-54
2021/12/11 12:16:25;;;;;;;5.50;3.87;;;;;;;;;;5034233;28;20459;-51
2021/12/11 12:18:51;;;;;;;5.43;3.97;;;;;;;;;;5039521;28;20025;-52
2021/12/11 12:21:18;;;;;;;5.87;3.43;;;;;;;;;;5050138;28;20109;-54
2021/12/11 12:23:45;;;;;;;10.43;5.20;;;;;;;;;;5042980;28;20026;-51
2021/12/11 12:26:14;;;;;;;4.80;3.77;;;;;;;;;;5032793;28;20064;-55
2021/12/11 12:28:40;;;;;;;5.23;3.73;;;;;;;;;;5045991;28;20067;-52
2021/12/11 12:31:08;;;;;;;6.00;3.93;;;;;;;;;;5037360;28;20033;-54
2021/12/11 12:33:34;;;;;;;5.17;3.77;;;;;;;;;;5041200;28;20033;-53
2021/12/11 12:36:00;;;;;;;7.57;5.03;;;;;;;;;;5052734;28;20040;-52
2021/12/11 12:38:28;;;;;;;7.73;4.47;;;;;;;;;;5042443;28;20108;-54
2021/12/11 12:41:00;;;;;;;6.90;5.82;;;;;;;;;;5047382;28;20523;-53
2021/12/11 12:43:55;;;;;;;6.82;5.18;;;;;;;;;;5037348;28;20025;-55
2021/12/11 12:46:28;;;;;;;4.37;3.90;;;;;;;;;;5052056;28;20402;-52
2021/12/11 12:48:56;;;;;;;5.97;5.03;;;;;;;;;;5052860;28;20064;-55
2021/12/11 12:51:22;;;;;;;5.60;3.72;;;;;;;;;;5037841;28;20452;-55
2021/12/11 12:53:48;;;;;;;6.83;5.30;;;;;;;;;;5051566;28;20045;-52
2021/12/11 12:56:40;;;;;;;4.73;3.80;;;;;;;;;;5039873;28;20076;-55
2021/12/11 12:59:06;;;;;;;4.13;3.60;;;;;;;;;;5050717;28;20090;-52
2021/12/11 13:01:39;;;;;;;5.03;3.50;;;;;;;;;;5047200;28;20033;-53
2021/12/11 13:04:06;;;;;;;6.97;4.95;;;;;;;;;;5055384;28;20033;-55
2021/12/11 13:06:34;;;;;;;5.17;4.43;;;;;;;;;;5048626;28;20071;-50
2021/12/11 13:09:41;;;;;;;5.53;4.30;;;;;;;;;;5032525;28;20153;-53
2021/12/11 13:12:12;;;;;;;5.63;3.13;;;;;;;;;;5031021;28;20033;-50
2021/12/11 13:14:40;;;;;;;5.97;3.50;;;;;;;;;;5046094;28;20049;-54
2021/12/11 13:17:10;;;;;;;8.70;5.00;;;;;;;;;;5039955;28;20041;-54
2021/12/11 13:19:37;;;;;;;4.93;4.17;;;;;;;;;;5040332;28;20051;-55
2021/12/11 13:22:06;;;;;;;4.50;3.67;;;;;;;;;;5045741;28;20032;-55
2021/12/11 13:24:32;;;;;;;4.43;3.65;;;;;;;;;;5040483;28;20112;-56
2021/12/11 13:27:02;;;;;;;6.03;4.18;;;;;;;;;;5045862;28;20527;-55
2021/12/11 13:29:30;;;;;;;7.17;4.77;;;;;;;;;;5045615;28;20029;-56
2021/12/11 13:32:00;;;;;;;6.43;5.38;;;;;;;;;;5050143;28;20260;-56
2021/12/11 13:34:31;;;;;;;6.45;5.03;;;;;;;;;;5045205;28;20029;-52
2021/12/11 13:36:57;;;;;;;6.00;4.70;;;;;;;;;;5050275;28;20111;-56
2021/12/11 13:39:23;;;;;;;6.40;4.70;;;;;;;;;;5048835;28;20492;-53
2021/12/11 13:41:59;;;;;;;4.85;3.88;;;;;;;;;;5031670;28;20029;-53
2021/12/11 13:44:26;;;;;;;4.95;4.30;;;;;;;;;;5031941;28;20041;-56
2021/12/11 13:46:52;;;;;;;7.25;4.55;;;;;;;;;;5033279;28;20025;-53
2021/12/11 13:49:18;;;;;;;5.88;4.95;;;;;;;;;;5051905;28;20079;-56
2021/12/11 13:51:45;;;;;;;6.60;4.68;;;;;;;;;;5052425;28;20024;-55
2021/12/11 13:54:12;;;;;;;3.85;3.20;;;;;;;;;;5052275;28;20032;-51
2021/12/11 13:56:39;;;;;;;5.65;3.88;;;;;;;;;;5052193;28;20462;-55
2021/12/11 13:59:07;;;;;;;4.75;2.97;;;;;;;;;;5051906;28;20032;-53
2021/12/11 14:01:36;;;;;;;5.45;3.67;;;;;;;;;;5044546;28;20045;-55
2021/12/11 14:04:03;;;;;;;5.20;3.77;;;;;;;;;;5049716;28;20032;-53
2021/12/11 14:06:31;;;;;;;5.93;4.43;;;;;;;;;;5072615;28;20033;-55
2021/12/11 14:09:06;;;;;;;4.13;3.13;;;;;;;;;;5071940;28;20471;-57
2021/12/11 14:11:33;;;;;;;6.30;4.43;;;;;;;;;;5072297;28;20074;-54
2021/12/11 14:13:59;;;;;;;5.85;4.55;;;;;;;;;;5072345;28;20032;-57
2021/12/11 14:16:26;;;;;;;6.30;4.10;;;;;;;;;;5062131;28;20044;-56
2021/12/11 14:18:52;;;;;;;4.40;3.73;;;;;;;;;;5051457;28;20036;-56
2021/12/11 14:21:18;;;;;;;5.73;4.83;;;;;;;;;;5051867;28;20025;-53
2021/12/11 14:23:45;;;;;;;4.80;3.93;;;;;;;;;;5052075;28;20021;-56
2021/12/11 14:26:13;;;;;;;7.75;4.22;;;;;;;;;;5052048;28;20043;-56
2021/12/11 14:28:39;;;;;;;6.07;4.10;;;;;;;;;;5051324;28;20033;-55
2021/12/11 14:31:10;;;;;;;5.93;4.60;;;;;;;;;;5051182;28;20423;-52
2021/12/11 14:33:37;;;;;;;5.35;4.63;;;;;;;;;;5051893;28;20025;-55
2021/12/11 14:36:06;;;;;;;5.27;4.43;;;;;;;;;;5051883;28;20467;-55
2021/12/11 14:38:32;;;;;;;7.07;5.23;;;;;;;;;;5051419;28;20470;-55
2021/12/11 14:40:58;;;;;;;5.93;4.37;;;;;;;;;;5051868;28;20096;-54
2021/12/11 14:43:25;;;;;;;6.83;5.20;;;;;;;;;;5049921;28;20099;-55
2021/12/11 14:45:52;;;;;;;4.35;3.92;;;;;;;;;;5051635;28;20049;-56
2021/12/11 14:48:19;;;;;;;8.07;4.53;;;;;;;;;;5051130;28;20036;-55
2021/12/11 14:50:50;;;;;;;7.30;5.30;;;;;;;;;;5054177;28;20100;-53
2021/12/11 14:53:19;;;;;;;6.57;5.35;;;;;;;;;;5055977;28;20025;-56
2021/12/11 14:55:47;;;;;;;6.03;4.80;;;;;;;;;;5054748;28;20530;-56
2021/12/11 14:58:13;;;;;;;5.57;5.03;;;;;;;;;;5048622;28;20059;-52
2021/12/11 15:00:41;;;;;;;8.67;6.10;;;;;;;;;;5037829;28;20112;-55
2021/12/11 15:03:08;;;;;;;6.53;5.50;;;;;;;;;;5037588;28;20151;-52
2021/12/11 15:05:40;;;;;;;5.70;4.30;;;;;;;;;;5075540;28;20111;-52
2021/12/11 15:08:08;;;;;;;6.80;5.70;;;;;;;;;;5074131;28;20040;-53